Hersilia, Argentina
Current Conditions -  °F | °C
As of 7:00 PM on Wednesday 22 Oct 2014 (Local Time) from SACO Reporting Station
Clear Clear  
Wind Chill: 86°   Ceiling: Unl
Heat Index: 86°   Visibility: 6mi
Dew Point: 50°   Wind: 15mph
Humidity: 29%   Direction: 20°NNE
Pressure: 29.94"   Gusts: NA
Location:  30°S, 61.85°W
Report Text: SACO 222200Z 02013KT CAVOK 30/10 Q1014
Loading
Personal Weather Stations






























Interactive Weather Map
Tropical Storm Tracking
New forecast layout! Learn more

10-Day Weather Forecast

Advertisements
Track Severe Weather on mobile